sensor_id;sensor_type;location;lat;lon;timestamp;temperature;humidity
46882;DHT22;44112;38.408;-122.974;2022-10-31T00:01:32;23.50;46.70
46882;DHT22;44112;38.408;-122.974;2022-10-31T00:03:57;23.50;46.80
46882;DHT22;44112;38.408;-122.974;2022-10-31T00:06:24;23.50;46.80
46882;DHT22;44112;38.408;-122.974;2022-10-31T00:09:01;23.50;46.70
46882;DHT22;44112;38.408;-122.974;2022-10-31T00:11:29;23.50;46.70
46882;DHT22;44112;38.408;-122.974;2022-10-31T00:13:59;23.50;46.80
46882;DHT22;44112;38.408;-122.974;2022-10-31T00:16:28;23.50;46.90
46882;DHT22;44112;38.408;-122.974;2022-10-31T00:19:00;23.50;47.00
46882;DHT22;44112;38.408;-122.974;2022-10-31T00:21:29;23.40;46.90
46882;DHT22;44112;38.408;-122.974;2022-10-31T00:23:57;23.40;47.00
46882;DHT22;44112;38.408;-122.974;2022-10-31T00:26:24;23.40;47.00
46882;DHT22;44112;38.408;-122.974;2022-10-31T00:28:52;23.40;47.00
46882;DHT22;44112;38.408;-122.974;2022-10-31T00:31:18;23.40;47.00
46882;DHT22;44112;38.408;-122.974;2022-10-31T00:33:45;23.40;47.10
46882;DHT22;44112;38.408;-122.974;2022-10-31T00:36:14;23.40;47.10
46882;DHT22;44112;38.408;-122.974;2022-10-31T00:38:45;23.40;47.20
46882;DHT22;44112;38.408;-122.974;2022-10-31T00:41:13;23.40;47.20
46882;DHT22;44112;38.408;-122.974;2022-10-31T00:43:40;23.30;47.20
46882;DHT22;44112;38.408;-122.974;2022-10-31T00:46:07;23.40;47.30
46882;DHT22;44112;38.408;-122.974;2022-10-31T00:48:34;23.30;47.30
46882;DHT22;44112;38.408;-122.974;2022-10-31T00:51:01;23.30;47.30
46882;DHT22;44112;38.408;-122.974;2022-10-31T00:53:28;23.30;47.40
46882;DHT22;44112;38.408;-122.974;2022-10-31T00:55:54;23.30;47.40
46882;DHT22;44112;38.408;-122.974;2022-10-31T00:58:20;23.30;47.50
46882;DHT22;44112;38.408;-122.974;2022-10-31T01:00:48;23.30;47.60
46882;DHT22;44112;38.408;-122.974;2022-10-31T01:03:39;23.30;47.50
46882;DHT22;44112;38.408;-122.974;2022-10-31T01:06:08;23.30;47.60
46882;DHT22;44112;38.408;-122.974;2022-10-31T01:08:36;23.30;47.60
46882;DHT22;44112;38.408;-122.974;2022-10-31T01:11:16;23.30;47.60
46882;DHT22;44112;38.408;-122.974;2022-10-31T01:13:44;23.20;47.60
46882;DHT22;44112;38.408;-122.974;2022-10-31T01:16:16;23.20;47.70
46882;DHT22;44112;38.408;-122.974;2022-10-31T01:18:43;23.20;47.70
46882;DHT22;44112;38.408;-122.974;2022-10-31T01:21:21;23.20;47.70
46882;DHT22;44112;38.408;-122.974;2022-10-31T01:23:48;23.20;47.80
46882;DHT22;44112;38.408;-122.974;2022-10-31T01:26:22;23.20;47.80
46882;DHT22;44112;38.408;-122.974;2022-10-31T01:28:52;23.10;47.80
46882;DHT22;44112;38.408;-122.974;2022-10-31T01:31:21;23.10;48.00
46882;DHT22;44112;38.408;-122.974;2022-10-31T01:33:48;23.10;47.90
46882;DHT22;44112;38.408;-122.974;2022-10-31T01:36:35;23.10;47.80
46882;DHT22;44112;38.408;-122.974;2022-10-31T01:39:06;23.10;47.80
46882;DHT22;44112;38.408;-122.974;2022-10-31T01:41:35;23.10;47.70
46882;DHT22;44112;38.408;-122.974;2022-10-31T01:47:03;23.10;48.10
46882;DHT22;44112;38.408;-122.974;2022-10-31T01:49:45;23.10;48.10
46882;DHT22;44112;38.408;-122.974;2022-10-31T01:55:01;23.10;48.20
46882;DHT22;44112;38.408;-122.974;2022-10-31T01:57:31;23.10;48.20
46882;DHT22;44112;38.408;-122.974;2022-10-31T02:00:01;23.10;48.20
46882;DHT22;44112;38.408;-122.974;2022-10-31T02:02:28;23.00;48.20
46882;DHT22;44112;38.408;-122.974;2022-10-31T02:04:56;23.00;48.30
46882;DHT22;44112;38.408;-122.974;2022-10-31T02:07:32;23.00;48.30
46882;DHT22;44112;38.408;-122.974;2022-10-31T02:10:02;23.00;48.40
46882;DHT22;44112;38.408;-122.974;2022-10-31T02:12:30;23.00;48.40
46882;DHT22;44112;38.408;-122.974;2022-10-31T02:14:58;23.00;48.40
46882;DHT22;44112;38.408;-122.974;2022-10-31T02:17:25;23.00;48.30
46882;DHT22;44112;38.408;-122.974;2022-10-31T02:20:25;23.00;48.20
46882;DHT22;44112;38.408;-122.974;2022-10-31T02:23:20;23.00;48.20
46882;DHT22;44112;38.408;-122.974;2022-10-31T02:37:37;22.90;48.20
46882;DHT22;44112;38.408;-122.974;2022-10-31T02:48:44;23.00;47.80
46882;DHT22;44112;38.408;-122.974;2022-10-31T02:51:12;23.00;47.80
46882;DHT22;44112;38.408;-122.974;2022-10-31T02:53:39;22.90;47.60
46882;DHT22;44112;38.408;-122.974;2022-10-31T02:56:13;22.90;47.50
46882;DHT22;44112;38.408;-122.974;2022-10-31T02:58:47;22.90;47.60
46882;DHT22;44112;38.408;-122.974;2022-10-31T03:09:33;22.80;47.70
46882;DHT22;44112;38.408;-122.974;2022-10-31T03:15:31;22.80;47.60
46882;DHT22;44112;38.408;-122.974;2022-10-31T03:17:55;22.80;47.60
46882;DHT22;44112;38.408;-122.974;2022-10-31T03:23:47;22.80;47.40
46882;DHT22;44112;38.408;-122.974;2022-10-31T03:26:16;22.80;47.50
46882;DHT22;44112;38.408;-122.974;2022-10-31T03:28:57;22.80;47.50
46882;DHT22;44112;38.408;-122.974;2022-10-31T03:31:32;22.80;47.60
46882;DHT22;44112;38.408;-122.974;2022-10-31T03:34:00;22.80;47.60
46882;DHT22;44112;38.408;-122.974;2022-10-31T03:36:30;22.80;47.60
46882;DHT22;44112;38.408;-122.974;2022-10-31T03:38:58;22.70;47.60
46882;DHT22;44112;38.408;-122.974;2022-10-31T03:41:30;22.70;47.60
46882;DHT22;44112;38.408;-122.974;2022-10-31T03:44:03;22.70;47.60
46882;DHT22;44112;38.408;-122.974;2022-10-31T03:46:31;22.70;47.60
46882;DHT22;44112;38.408;-122.974;2022-10-31T03:48:58;22.70;47.60
46882;DHT22;44112;38.408;-122.974;2022-10-31T03:54:29;22.70;47.60
46882;DHT22;44112;38.408;-122.974;2022-10-31T03:57:10;22.60;47.50
46882;DHT22;44112;38.408;-122.974;2022-10-31T03:59:43;22.60;47.40
46882;DHT22;44112;38.408;-122.974;2022-10-31T04:02:17;22.60;47.50
46882;DHT22;44112;38.408;-122.974;2022-10-31T04:04:45;22.60;47.40
46882;DHT22;44112;38.408;-122.974;2022-10-31T04:07:13;22.50;47.80
46882;DHT22;44112;38.408;-122.974;2022-10-31T04:09:44;22.50;47.20
46882;DHT22;44112;38.408;-122.974;2022-10-31T04:12:14;22.50;48.70
46882;DHT22;44112;38.408;-122.974;2022-10-31T04:14:45;22.50;47.40
46882;DHT22;44112;38.408;-122.974;2022-10-31T04:17:15;22.50;48.50
46882;DHT22;44112;38.408;-122.974;2022-10-31T04:19:42;22.50;48.40
46882;DHT22;44112;38.408;-122.974;2022-10-31T04:22:09;22.50;47.90
46882;DHT22;44112;38.408;-122.974;2022-10-31T04:24:38;22.50;47.80
46882;DHT22;44112;38.408;-122.974;2022-10-31T04:27:05;22.50;47.80
46882;DHT22;44112;38.408;-122.974;2022-10-31T04:29:32;22.50;47.90
46882;DHT22;44112;38.408;-122.974;2022-10-31T04:31:59;22.50;47.90
46882;DHT22;44112;38.408;-122.974;2022-10-31T04:34:25;22.50;47.90
46882;DHT22;44112;38.408;-122.974;2022-10-31T04:36:52;22.50;48.00
46882;DHT22;44112;38.408;-122.974;2022-10-31T04:39:18;22.50;47.90
46882;DHT22;44112;38.408;-122.974;2022-10-31T04:41:46;22.50;48.00
46882;DHT22;44112;38.408;-122.974;2022-10-31T04:44:13;22.50;48.00
46882;DHT22;44112;38.408;-122.974;2022-10-31T04:46:40;22.50;48.20
46882;DHT22;44112;38.408;-122.974;2022-10-31T04:49:08;22.50;48.20
46882;DHT22;44112;38.408;-122.974;2022-10-31T04:51:34;22.50;48.20
46882;DHT22;44112;38.408;-122.974;2022-10-31T04:54:02;22.50;48.20
46882;DHT22;44112;38.408;-122.974;2022-10-31T04:56:29;22.50;48.20
46882;DHT22;44112;38.408;-122.974;2022-10-31T04:58:56;22.50;48.20
46882;DHT22;44112;38.408;-122.974;2022-10-31T05:01:22;22.50;48.20
46882;DHT22;44112;38.408;-122.974;2022-10-31T05:03:49;22.40;48.10
46882;DHT22;44112;38.408;-122.974;2022-10-31T05:06:15;22.40;48.10
46882;DHT22;44112;38.408;-122.974;2022-10-31T05:08:42;22.40;48.10
46882;DHT22;44112;38.408;-122.974;2022-10-31T05:11:09;22.40;48.30
46882;DHT22;44112;38.408;-122.974;2022-10-31T05:13:35;22.40;48.40
46882;DHT22;44112;38.408;-122.974;2022-10-31T05:16:02;22.40;48.40
46882;DHT22;44112;38.408;-122.974;2022-10-31T05:18:29;22.40;48.30
46882;DHT22;44112;38.408;-122.974;2022-10-31T05:20:55;22.40;48.30
46882;DHT22;44112;38.408;-122.974;2022-10-31T05:23:21;22.40;48.30
46882;DHT22;44112;38.408;-122.974;2022-10-31T05:25:48;22.40;48.30
46882;DHT22;44112;38.408;-122.974;2022-10-31T05:28:15;22.40;48.30
46882;DHT22;44112;38.408;-122.974;2022-10-31T05:30:42;22.40;48.20
46882;DHT22;44112;38.408;-122.974;2022-10-31T05:33:08;22.40;48.20
46882;DHT22;44112;38.408;-122.974;2022-10-31T05:35:35;22.30;48.20
46882;DHT22;44112;38.408;-122.974;2022-10-31T05:38:01;22.30;48.40
46882;DHT22;44112;38.408;-122.974;2022-10-31T05:40:28;22.30;48.50
46882;DHT22;44112;38.408;-122.974;2022-10-31T05:42:56;22.30;48.50
46882;DHT22;44112;38.408;-122.974;2022-10-31T05:45:24;22.30;48.40
46882;DHT22;44112;38.408;-122.974;2022-10-31T05:47:58;22.20;48.40
46882;DHT22;44112;38.408;-122.974;2022-10-31T05:50:26;22.30;48.50
46882;DHT22;44112;38.408;-122.974;2022-10-31T05:52:59;22.30;48.50
46882;DHT22;44112;38.408;-122.974;2022-10-31T05:55:26;22.20;48.50
46882;DHT22;44112;38.408;-122.974;2022-10-31T05:57:53;22.20;48.50
46882;DHT22;44112;38.408;-122.974;2022-10-31T06:00:21;22.30;48.60
46882;DHT22;44112;38.408;-122.974;2022-10-31T06:02:48;22.20;48.40
46882;DHT22;44112;38.408;-122.974;2022-10-31T06:05:14;22.20;48.50
46882;DHT22;44112;38.408;-122.974;2022-10-31T06:07:42;22.20;48.50
46882;DHT22;44112;38.408;-122.974;2022-10-31T06:10:09;22.20;48.50
46882;DHT22;44112;38.408;-122.974;2022-10-31T06:12:36;22.20;48.60
46882;DHT22;44112;38.408;-122.974;2022-10-31T06:15:05;22.10;48.30
46882;DHT22;44112;38.408;-122.974;2022-10-31T06:17:34;22.10;48.40
46882;DHT22;44112;38.408;-122.974;2022-10-31T06:20:01;22.10;48.40
46882;DHT22;44112;38.408;-122.974;2022-10-31T06:22:28;22.10;48.50
46882;DHT22;44112;38.408;-122.974;2022-10-31T06:24:54;22.00;48.20
46882;DHT22;44112;38.408;-122.974;2022-10-31T06:27:22;22.10;48.30
46882;DHT22;44112;38.408;-122.974;2022-10-31T06:29:48;22.00;48.20
46882;DHT22;44112;38.408;-122.974;2022-10-31T06:32:16;22.10;48.30
46882;DHT22;44112;38.408;-122.974;2022-10-31T06:34:43;22.10;48.20
46882;DHT22;44112;38.408;-122.974;2022-10-31T06:37:11;22.00;48.20
46882;DHT22;44112;38.408;-122.974;2022-10-31T06:39:38;22.00;48.30
46882;DHT22;44112;38.408;-122.974;2022-10-31T06:42:05;22.00;48.40
46882;DHT22;44112;38.408;-122.974;2022-10-31T06:44:32;21.90;48.30
46882;DHT22;44112;38.408;-122.974;2022-10-31T06:46:59;21.90;48.40
46882;DHT22;44112;38.408;-122.974;2022-10-31T06:49:25;21.90;48.30
46882;DHT22;44112;38.408;-122.974;2022-10-31T06:51:52;21.90;48.30
46882;DHT22;44112;38.408;-122.974;2022-10-31T06:54:18;21.90;48.40
46882;DHT22;44112;38.408;-122.974;2022-10-31T06:56:48;21.80;48.30
46882;DHT22;44112;38.408;-122.974;2022-10-31T06:59:15;21.90;48.40
46882;DHT22;44112;38.408;-122.974;2022-10-31T07:01:42;21.90;48.40
46882;DHT22;44112;38.408;-122.974;2022-10-31T07:04:09;21.90;48.50
46882;DHT22;44112;38.408;-122.974;2022-10-31T07:06:38;21.90;48.50
46882;DHT22;44112;38.408;-122.974;2022-10-31T07:09:06;21.90;48.50
46882;DHT22;44112;38.408;-122.974;2022-10-31T07:11:32;21.80;48.60
46882;DHT22;44112;38.408;-122.974;2022-10-31T07:13:58;21.90;48.60
46882;DHT22;44112;38.408;-122.974;2022-10-31T07:16:26;21.80;48.50
46882;DHT22;44112;38.408;-122.974;2022-10-31T07:18:53;21.80;48.60
46882;DHT22;44112;38.408;-122.974;2022-10-31T07:21:20;21.80;48.60
46882;DHT22;44112;38.408;-122.974;2022-10-31T07:23:50;21.80;48.70
46882;DHT22;44112;38.408;-122.974;2022-10-31T07:26:17;21.80;48.80
46882;DHT22;44112;38.408;-122.974;2022-10-31T07:28:46;21.70;48.80
46882;DHT22;44112;38.408;-122.974;2022-10-31T07:31:13;21.80;48.90
46882;DHT22;44112;38.408;-122.974;2022-10-31T07:33:40;21.70;48.80
46882;DHT22;44112;38.408;-122.974;2022-10-31T07:36:07;21.80;48.90
46882;DHT22;44112;38.408;-122.974;2022-10-31T07:38:33;21.80;48.90
46882;DHT22;44112;38.408;-122.974;2022-10-31T07:41:00;21.70;48.90
46882;DHT22;44112;38.408;-122.974;2022-10-31T07:43:27;21.70;49.00
46882;DHT22;44112;38.408;-122.974;2022-10-31T07:45:54;21.70;49.00
46882;DHT22;44112;38.408;-122.974;2022-10-31T07:48:21;21.70;48.90
46882;DHT22;44112;38.408;-122.974;2022-10-31T07:50:47;21.70;48.90
46882;DHT22;44112;38.408;-122.974;2022-10-31T07:53:15;21.70;49.10
46882;DHT22;44112;38.408;-122.974;2022-10-31T07:55:42;21.60;49.00
46882;DHT22;44112;38.408;-122.974;2022-10-31T07:58:11;21.60;49.00
46882;DHT22;44112;38.408;-122.974;2022-10-31T08:00:40;21.60;49.10
46882;DHT22;44112;38.408;-122.974;2022-10-31T08:03:09;21.60;49.20
46882;DHT22;44112;38.408;-122.974;2022-10-31T08:05:36;21.60;49.10
46882;DHT22;44112;38.408;-122.974;2022-10-31T08:08:04;21.60;49.10
46882;DHT22;44112;38.408;-122.974;2022-10-31T08:10:31;21.60;49.10
46882;DHT22;44112;38.408;-122.974;2022-10-31T08:13:11;21.60;49.10
46882;DHT22;44112;38.408;-122.974;2022-10-31T08:15:37;21.60;49.80
46882;DHT22;44112;38.408;-122.974;2022-10-31T08:18:13;21.60;49.30
46882;DHT22;44112;38.408;-122.974;2022-10-31T08:20:41;21.50;49.20
46882;DHT22;44112;38.408;-122.974;2022-10-31T08:23:10;21.50;49.20
46882;DHT22;44112;38.408;-122.974;2022-10-31T08:25:38;21.50;49.20
46882;DHT22;44112;38.408;-122.974;2022-10-31T08:28:05;21.50;49.30
46882;DHT22;44112;38.408;-122.974;2022-10-31T08:30:34;21.50;49.30
46882;DHT22;44112;38.408;-122.974;2022-10-31T08:33:04;21.50;49.40
46882;DHT22;44112;38.408;-122.974;2022-10-31T08:35:32;21.50;49.40
46882;DHT22;44112;38.408;-122.974;2022-10-31T08:37:59;21.50;49.30
46882;DHT22;44112;38.408;-122.974;2022-10-31T08:40:27;21.50;49.30
46882;DHT22;44112;38.408;-122.974;2022-10-31T08:45:29;21.40;49.40
46882;DHT22;44112;38.408;-122.974;2022-10-31T08:48:03;21.40;49.40
46882;DHT22;44112;38.408;-122.974;2022-10-31T08:50:31;21.40;49.40
46882;DHT22;44112;38.408;-122.974;2022-10-31T08:53:06;21.40;49.40
46882;DHT22;44112;38.408;-122.974;2022-10-31T08:55:35;21.30;49.40
46882;DHT22;44112;38.408;-122.974;2022-10-31T08:58:03;21.30;49.50
46882;DHT22;44112;38.408;-122.974;2022-10-31T09:00:30;21.30;49.50
46882;DHT22;44112;38.408;-122.974;2022-10-31T09:02:58;21.30;49.60
46882;DHT22;44112;38.408;-122.974;2022-10-31T09:05:25;21.40;49.80
46882;DHT22;44112;38.408;-122.974;2022-10-31T09:07:56;21.40;49.70
46882;DHT22;44112;38.408;-122.974;2022-10-31T09:10:24;21.40;49.60
46882;DHT22;44112;38.408;-122.974;2022-10-31T09:13:04;21.40;49.60
46882;DHT22;44112;38.408;-122.974;2022-10-31T09:15:35;21.30;49.60
46882;DHT22;44112;38.408;-122.974;2022-10-31T09:18:02;21.40;49.50
46882;DHT22;44112;38.408;-122.974;2022-10-31T09:20:30;21.30;49.60
46882;DHT22;44112;38.408;-122.974;2022-10-31T09:23:01;21.30;49.60
46882;DHT22;44112;38.408;-122.974;2022-10-31T09:25:28;21.30;49.50
46882;DHT22;44112;38.408;-122.974;2022-10-31T09:27:59;21.30;49.50
46882;DHT22;44112;38.408;-122.974;2022-10-31T09:30:27;21.30;49.50
46882;DHT22;44112;38.408;-122.974;2022-10-31T09:33:02;21.20;49.40
46882;DHT22;44112;38.408;-122.974;2022-10-31T09:35:29;21.30;49.40
46882;DHT22;44112;38.408;-122.974;2022-10-31T09:40:27;21.20;49.50
46882;DHT22;44112;38.408;-122.974;2022-10-31T09:51:37;21.10;49.50
46882;DHT22;44112;38.408;-122.974;2022-10-31T09:54:15;21.10;49.50
46882;DHT22;44112;38.408;-122.974;2022-10-31T09:56:44;21.10;49.50
46882;DHT22;44112;38.408;-122.974;2022-10-31T09:59:24;21.10;49.50
46882;DHT22;44112;38.408;-122.974;2022-10-31T10:01:56;21.10;49.40
46882;DHT22;44112;38.408;-122.974;2022-10-31T10:04:42;21.10;49.50
46882;DHT22;44112;38.408;-122.974;2022-10-31T10:07:14;21.10;49.50
46882;DHT22;44112;38.408;-122.974;2022-10-31T10:09:43;21.10;50.00
46882;DHT22;44112;38.408;-122.974;2022-10-31T10:12:35;21.10;49.40
46882;DHT22;44112;38.408;-122.974;2022-10-31T10:18:48;21.00;49.50
46882;DHT22;44112;38.408;-122.974;2022-10-31T10:24:25;20.90;49.60
46882;DHT22;44112;38.408;-122.974;2022-10-31T10:29:52;20.90;49.60
46882;DHT22;44112;38.408;-122.974;2022-10-31T10:32:28;20.90;49.50
46882;DHT22;44112;38.408;-122.974;2022-10-31T10:37:55;20.90;50.10
46882;DHT22;44112;38.408;-122.974;2022-10-31T10:40:25;20.90;49.50
46882;DHT22;44112;38.408;-122.974;2022-10-31T10:49:31;20.80;49.50
46882;DHT22;44112;38.408;-122.974;2022-10-31T11:00:26;20.70;49.50
46882;DHT22;44112;38.408;-122.974;2022-10-31T11:02:54;20.70;49.50
46882;DHT22;44112;38.408;-122.974;2022-10-31T11:07:54;20.70;49.60
46882;DHT22;44112;38.408;-122.974;2022-10-31T11:10:21;20.70;49.50
46882;DHT22;44112;38.408;-122.974;2022-10-31T11:18:31;20.70;49.40
46882;DHT22;44112;38.408;-122.974;2022-10-31T11:21:01;20.70;49.50
46882;DHT22;44112;38.408;-122.974;2022-10-31T11:23:30;20.60;49.40
46882;DHT22;44112;38.408;-122.974;2022-10-31T11:25:58;20.60;49.50
46882;DHT22;44112;38.408;-122.974;2022-10-31T11:28:26;20.60;49.50
46882;DHT22;44112;38.408;-122.974;2022-10-31T11:30:59;20.60;49.50
46882;DHT22;44112;38.408;-122.974;2022-10-31T11:33:39;20.60;49.50
46882;DHT22;44112;38.408;-122.974;2022-10-31T11:36:30;20.50;49.50
46882;DHT22;44112;38.408;-122.974;2022-10-31T11:38:58;20.50;49.50
46882;DHT22;44112;38.408;-122.974;2022-10-31T11:41:30;20.50;49.60
46882;DHT22;44112;38.408;-122.974;2022-10-31T11:44:05;20.50;49.50
46882;DHT22;44112;38.408;-122.974;2022-10-31T11:46:43;20.50;49.50
46882;DHT22;44112;38.408;-122.974;2022-10-31T11:49:13;20.50;49.50
46882;DHT22;44112;38.408;-122.974;2022-10-31T11:51:41;20.50;49.40
46882;DHT22;44112;38.408;-122.974;2022-10-31T11:54:28;20.40;49.40
46882;DHT22;44112;38.408;-122.974;2022-10-31T11:56:56;20.40;49.50
46882;DHT22;44112;38.408;-122.974;2022-10-31T11:59:30;20.40;49.60
46882;DHT22;44112;38.408;-122.974;2022-10-31T12:02:00;20.40;49.50
46882;DHT22;44112;38.408;-122.974;2022-10-31T12:04:38;20.40;49.50
46882;DHT22;44112;38.408;-122.974;2022-10-31T12:07:07;20.30;49.60
46882;DHT22;44112;38.408;-122.974;2022-10-31T12:09:36;20.30;49.70
46882;DHT22;44112;38.408;-122.974;2022-10-31T12:12:40;20.30;49.70
46882;DHT22;44112;38.408;-122.974;2022-10-31T12:20:42;20.30;49.50
46882;DHT22;44112;38.408;-122.974;2022-10-31T12:26:14;20.30;49.50
46882;DHT22;44112;38.408;-122.974;2022-10-31T12:32:30;20.20;49.60
46882;DHT22;44112;38.408;-122.974;2022-10-31T12:35:15;20.30;49.70
46882;DHT22;44112;38.408;-122.974;2022-10-31T12:43:49;20.20;49.70
46882;DHT22;44112;38.408;-122.974;2022-10-31T12:45:57;20.20;49.70
46882;DHT22;44112;38.408;-122.974;2022-10-31T12:51:47;20.20;49.60
46882;DHT22;44112;38.408;-122.974;2022-10-31T12:59:35;20.10;49.60
46882;DHT22;44112;38.408;-122.974;2022-10-31T13:02:19;20.10;49.60
46882;DHT22;44112;38.408;-122.974;2022-10-31T13:05:05;20.10;49.60
46882;DHT22;44112;38.408;-122.974;2022-10-31T13:10:17;20.00;49.60
46882;DHT22;44112;38.408;-122.974;2022-10-31T13:12:45;20.00;49.70
46882;DHT22;44112;38.408;-122.974;2022-10-31T13:15:27;20.00;49.80
46882;DHT22;44112;38.408;-122.974;2022-10-31T13:17:57;20.00;49.80
46882;DHT22;44112;38.408;-122.974;2022-10-31T13:20:41;20.00;49.70
46882;DHT22;44112;38.408;-122.974;2022-10-31T13:23:34;20.00;49.60
46882;DHT22;44112;38.408;-122.974;2022-10-31T13:26:10;20.00;49.60
46882;DHT22;44112;38.408;-122.974;2022-10-31T13:31:23;20.00;49.60
46882;DHT22;44112;38.408;-122.974;2022-10-31T13:34:03;20.00;49.70
46882;DHT22;44112;38.408;-122.974;2022-10-31T13:36:33;19.90;49.60
46882;DHT22;44112;38.408;-122.974;2022-10-31T13:41:43;19.90;49.70
46882;DHT22;44112;38.408;-122.974;2022-10-31T13:46:42;19.80;49.80
46882;DHT22;44112;38.408;-122.974;2022-10-31T13:54:43;19.80;49.70
46882;DHT22;44112;38.408;-122.974;2022-10-31T13:57:18;19.80;49.80
46882;DHT22;44112;38.408;-122.974;2022-10-31T13:59:49;19.80;49.70
46882;DHT22;44112;38.408;-122.974;2022-10-31T14:02:23;19.80;49.70
46882;DHT22;44112;38.408;-122.974;2022-10-31T14:04:55;19.80;49.70
46882;DHT22;44112;38.408;-122.974;2022-10-31T14:07:24;19.80;49.80
46882;DHT22;44112;38.408;-122.974;2022-10-31T14:10:16;19.70;49.70
46882;DHT22;44112;38.408;-122.974;2022-10-31T14:12:47;19.70;49.80
46882;DHT22;44112;38.408;-122.974;2022-10-31T14:15:26;19.70;49.90
46882;DHT22;44112;38.408;-122.974;2022-10-31T14:18:00;19.70;49.90
46882;DHT22;44112;38.408;-122.974;2022-10-31T14:20:41;19.70;49.90
46882;DHT22;44112;38.408;-122.974;2022-10-31T14:26:29;19.70;49.90
46882;DHT22;44112;38.408;-122.974;2022-10-31T14:28:58;19.70;49.80
46882;DHT22;44112;38.408;-122.974;2022-10-31T14:33:52;19.70;49.80
46882;DHT22;44112;38.408;-122.974;2022-10-31T14:50:49;19.50;49.90
46882;DHT22;44112;38.408;-122.974;2022-10-31T14:53:29;19.50;50.00
46882;DHT22;44112;38.408;-122.974;2022-10-31T14:55:57;19.50;50.00
46882;DHT22;44112;38.408;-122.974;2022-10-31T14:58:39;19.50;50.00
46882;DHT22;44112;38.408;-122.974;2022-10-31T15:01:06;19.50;49.90
46882;DHT22;44112;38.408;-122.974;2022-10-31T15:03:39;19.50;49.90
46882;DHT22;44112;38.408;-122.974;2022-10-31T15:06:17;19.50;49.90
46882;DHT22;44112;38.408;-122.974;2022-10-31T15:11:15;19.40;49.90
46882;DHT22;44112;38.408;-122.974;2022-10-31T15:13:47;19.40;49.90
46882;DHT22;44112;38.408;-122.974;2022-10-31T15:16:41;19.40;49.90
46882;DHT22;44112;38.408;-122.974;2022-10-31T15:19:11;19.40;49.90
46882;DHT22;44112;38.408;-122.974;2022-10-31T15:21:43;19.30;50.00
46882;DHT22;44112;38.408;-122.974;2022-10-31T15:24:16;19.30;50.00
46882;DHT22;44112;38.408;-122.974;2022-10-31T15:26:49;19.30;50.00
46882;DHT22;44112;38.408;-122.974;2022-10-31T15:29:20;19.30;50.00
46882;DHT22;44112;38.408;-122.974;2022-10-31T15:31:59;19.30;50.00
46882;DHT22;44112;38.408;-122.974;2022-10-31T15:34:42;19.30;50.00
46882;DHT22;44112;38.408;-122.974;2022-10-31T15:37:13;19.30;50.00
46882;DHT22;44112;38.408;-122.974;2022-10-31T15:39:42;19.30;50.00
46882;DHT22;44112;38.408;-122.974;2022-10-31T15:42:40;19.30;50.00
46882;DHT22;44112;38.408;-122.974;2022-10-31T15:47:37;19.30;50.10
46882;DHT22;44112;38.408;-122.974;2022-10-31T15:50:06;19.20;50.10
46882;DHT22;44112;38.408;-122.974;2022-10-31T15:52:46;19.20;50.20
46882;DHT22;44112;38.408;-122.974;2022-10-31T15:55:24;19.20;50.10
46882;DHT22;44112;38.408;-122.974;2022-10-31T15:57:56;19.20;50.70
46882;DHT22;44112;38.408;-122.974;2022-10-31T16:00:29;19.20;50.20
46882;DHT22;44112;38.408;-122.974;2022-10-31T16:05:51;19.20;50.00
46882;DHT22;44112;38.408;-122.974;2022-10-31T16:10:55;19.20;50.00
46882;DHT22;44112;38.408;-122.974;2022-10-31T16:13:27;19.20;49.90
46882;DHT22;44112;38.408;-122.974;2022-10-31T16:16:03;19.20;50.10
46882;DHT22;44112;38.408;-122.974;2022-10-31T16:18:35;19.20;50.40
46882;DHT22;44112;38.408;-122.974;2022-10-31T16:21:03;19.20;51.90
46882;DHT22;44112;38.408;-122.974;2022-10-31T16:23:31;19.20;51.80
46882;DHT22;44112;38.408;-122.974;2022-10-31T16:25:58;19.10;51.70
46882;DHT22;44112;38.408;-122.974;2022-10-31T16:28:27;19.10;51.70
46882;DHT22;44112;38.408;-122.974;2022-10-31T16:30:55;19.20;51.80
46882;DHT22;44112;38.408;-122.974;2022-10-31T16:33:31;19.10;51.70
46882;DHT22;44112;38.408;-122.974;2022-10-31T16:38:57;19.20;51.60
46882;DHT22;44112;38.408;-122.974;2022-10-31T16:41:24;19.10;51.50
46882;DHT22;44112;38.408;-122.974;2022-10-31T16:43:53;19.10;51.50
46882;DHT22;44112;38.408;-122.974;2022-10-31T16:46:24;19.10;51.50
46882;DHT22;44112;38.408;-122.974;2022-10-31T16:48:53;19.20;51.80
46882;DHT22;44112;38.408;-122.974;2022-10-31T16:51:21;19.10;51.90
46882;DHT22;44112;38.408;-122.974;2022-10-31T16:53:47;19.10;51.70
46882;DHT22;44112;38.408;-122.974;2022-10-31T16:56:36;19.10;51.80
46882;DHT22;44112;38.408;-122.974;2022-10-31T16:59:06;19.10;51.90
46882;DHT22;44112;38.408;-122.974;2022-10-31T17:01:37;19.10;51.80
46882;DHT22;44112;38.408;-122.974;2022-10-31T17:04:03;19.10;51.80
46882;DHT22;44112;38.408;-122.974;2022-10-31T17:06:30;19.10;51.90
46882;DHT22;44112;38.408;-122.974;2022-10-31T17:08:56;19.10;51.70
46882;DHT22;44112;38.408;-122.974;2022-10-31T17:11:25;19.10;51.70
46882;DHT22;44112;38.408;-122.974;2022-10-31T17:13:52;19.10;51.60
46882;DHT22;44112;38.408;-122.974;2022-10-31T17:16:19;19.10;51.70
46882;DHT22;44112;38.408;-122.974;2022-10-31T17:18:46;19.10;51.70
46882;DHT22;44112;38.408;-122.974;2022-10-31T17:21:20;19.00;51.80
46882;DHT22;44112;38.408;-122.974;2022-10-31T17:23:49;19.10;51.80
46882;DHT22;44112;38.408;-122.974;2022-10-31T17:26:17;19.00;51.70
46882;DHT22;44112;38.408;-122.974;2022-10-31T17:28:44;19.10;51.80
46882;DHT22;44112;38.408;-122.974;2022-10-31T17:31:23;19.00;51.70
46882;DHT22;44112;38.408;-122.974;2022-10-31T17:33:57;19.00;51.70
46882;DHT22;44112;38.408;-122.974;2022-10-31T17:36:25;19.00;51.70
46882;DHT22;44112;38.408;-122.974;2022-10-31T17:38:52;19.00;51.80
46882;DHT22;44112;38.408;-122.974;2022-10-31T17:41:19;19.10;51.70
46882;DHT22;44112;38.408;-122.974;2022-10-31T17:43:46;19.10;51.60
46882;DHT22;44112;38.408;-122.974;2022-10-31T17:46:14;19.10;51.60
46882;DHT22;44112;38.408;-122.974;2022-10-31T17:48:42;19.10;51.60
46882;DHT22;44112;38.408;-122.974;2022-10-31T17:51:08;19.10;51.50
46882;DHT22;44112;38.408;-122.974;2022-10-31T17:53:35;19.10;51.60
46882;DHT22;44112;38.408;-122.974;2022-10-31T17:56:06;19.10;51.60
46882;DHT22;44112;38.408;-122.974;2022-10-31T17:58:34;19.10;51.50